createdAt,value
2023-03-27T00:01:38.919Z,7.08
2023-03-27T00:04:09.350Z,7.07
2023-03-27T00:06:40.426Z,7.07
2023-03-27T00:09:10.994Z,7.08
2023-03-27T00:11:41.402Z,7.08
2023-03-27T00:14:11.788Z,7.08
2023-03-27T00:16:42.157Z,7.06
2023-03-27T00:19:12.496Z,7.04
2023-03-27T00:21:44.984Z,7.03
2023-03-27T00:24:16.055Z,7.02
2023-03-27T00:26:46.394Z,7.00
2023-03-27T00:29:16.806Z,6.99
2023-03-27T00:31:47.291Z,6.96
2023-03-27T00:34:19.988Z,6.93
2023-03-27T00:36:51.294Z,6.90
2023-03-27T00:39:21.898Z,6.88
2023-03-27T00:41:52.544Z,6.88
2023-03-27T00:44:31.247Z,6.85
2023-03-27T00:47:03.251Z,6.83
2023-03-27T00:49:37.725Z,6.81
2023-03-27T00:52:09.193Z,6.78
2023-03-27T00:54:40.438Z,6.76
2023-03-27T00:57:14.575Z,6.74
2023-03-27T00:59:46.901Z,6.72
2023-03-27T01:02:19.340Z,6.70
2023-03-27T01:04:51.297Z,6.69
2023-03-27T01:07:25.016Z,6.68
2023-03-27T01:09:56.559Z,6.69
2023-03-27T01:12:37.603Z,6.67
2023-03-27T01:15:35.822Z,6.64
2023-03-27T01:18:21.477Z,6.63
2023-03-27T01:21:23.667Z,6.62
2023-03-27T01:24:23.205Z,6.60
2023-03-27T01:27:07.481Z,6.59
2023-03-27T01:30:04.069Z,6.59
2023-03-27T01:33:07.322Z,6.57
2023-03-27T01:36:11.943Z,6.56
2023-03-27T01:39:05.669Z,6.53
2023-03-27T01:41:43.636Z,6.53
2023-03-27T01:44:20.635Z,6.53
2023-03-27T01:46:53.248Z,6.53
2023-03-27T01:49:27.076Z,6.52
2023-03-27T01:52:02.940Z,6.50
2023-03-27T01:54:37.007Z,6.47
2023-03-27T01:57:16.189Z,6.44
2023-03-27T01:59:53.131Z,6.41
2023-03-27T02:02:28.128Z,6.39
2023-03-27T02:05:05.536Z,6.37
2023-03-27T02:07:44.151Z,6.37
2023-03-27T02:10:21.812Z,6.38
2023-03-27T02:12:56.922Z,6.37
2023-03-27T02:15:31.572Z,6.36
2023-03-27T02:18:05.811Z,6.39
2023-03-27T02:20:38.439Z,6.37
2023-03-27T02:23:09.424Z,6.38
2023-03-27T02:25:41.112Z,6.40
2023-03-27T02:28:29.189Z,6.40
2023-03-27T02:31:32.733Z,6.39
2023-03-27T02:34:27.457Z,6.36
2023-03-27T02:37:05.172Z,6.33
2023-03-27T02:39:58.873Z,6.30
2023-03-27T02:42:37.867Z,6.26
2023-03-27T02:45:17.388Z,6.22
2023-03-27T02:47:53.937Z,6.18
2023-03-27T02:50:31.441Z,6.15
2023-03-27T02:53:11.409Z,6.10
2023-03-27T02:55:45.375Z,6.07
2023-03-27T02:58:21.589Z,6.03
2023-03-27T03:01:03.366Z,5.97
2023-03-27T03:03:39.884Z,5.87
2023-03-27T03:06:18.189Z,5.79
2023-03-27T03:08:50.396Z,5.71
2023-03-27T03:11:22.757Z,5.65
2023-03-27T03:13:53.148Z,5.61
2023-03-27T03:16:24.187Z,5.56
2023-03-27T03:18:54.511Z,5.50
2023-03-27T03:21:25.525Z,5.40
2023-03-27T03:23:58.146Z,5.33
2023-03-27T03:26:32.202Z,5.21
2023-03-27T03:29:02.690Z,5.09
2023-03-27T03:31:44.524Z,4.97
2023-03-27T03:34:18.559Z,4.88
2023-03-27T03:36:50.337Z,4.80
2023-03-27T03:39:25.129Z,4.70
2023-03-27T03:41:56.526Z,4.61
2023-03-27T03:44:28.194Z,4.55
2023-03-27T03:47:05.300Z,4.48
2023-03-27T03:49:35.935Z,4.43
2023-03-27T03:52:06.889Z,4.40
2023-03-27T03:54:38.851Z,4.35
2023-03-27T03:57:09.547Z,4.27
2023-03-27T03:59:40.337Z,4.20
2023-03-27T04:02:29.457Z,4.16
2023-03-27T04:05:08.601Z,4.08
2023-03-27T04:07:42.800Z,3.96
2023-03-27T04:10:37.666Z,3.82
2023-03-27T04:13:10.533Z,3.61
2023-03-27T04:15:47.251Z,3.42
2023-03-27T04:18:24.898Z,3.31
2023-03-27T04:20:58.576Z,3.17
2023-03-27T04:23:33.997Z,3.04
2023-03-27T04:26:04.969Z,2.93
2023-03-27T04:28:54.154Z,2.82
2023-03-27T04:31:57.401Z,2.68
2023-03-27T04:34:51.567Z,2.59
2023-03-27T04:37:34.885Z,2.54
2023-03-27T04:40:17.979Z,2.49
2023-03-27T04:42:50.132Z,2.42
2023-03-27T04:45:22.760Z,2.34
2023-03-27T04:47:54.601Z,2.23
2023-03-27T04:50:25.601Z,2.10
2023-03-27T04:52:59.984Z,1.99
2023-03-27T04:55:38.679Z,1.92
2023-03-27T04:58:09.422Z,1.88
2023-03-27T05:00:41.271Z,1.89
2023-03-27T05:03:11.579Z,1.90
2023-03-27T05:06:05.091Z,1.93
2023-03-27T05:08:36.114Z,1.94
2023-03-27T05:11:07.835Z,1.95
2023-03-27T05:13:46.322Z,1.97
2023-03-27T05:16:19.048Z,1.97
2023-03-27T05:18:50.610Z,1.96
2023-03-27T05:21:21.769Z,1.95
2023-03-27T05:23:53.405Z,1.93
2023-03-27T05:26:26.589Z,1.92
2023-03-27T05:29:00.524Z,1.89
2023-03-27T05:31:32.888Z,1.83
2023-03-27T05:34:34.807Z,1.74
2023-03-27T05:37:07.050Z,1.69
2023-03-27T05:39:46.779Z,1.64
2023-03-27T05:42:17.776Z,1.58
2023-03-27T05:44:48.776Z,1.49
2023-03-27T05:47:20.986Z,1.39
2023-03-27T05:49:51.792Z,1.30
2023-03-27T05:52:22.200Z,1.22
2023-03-27T05:54:59.421Z,1.13
2023-03-27T05:57:29.863Z,1.06
2023-03-27T06:00:05.580Z,0.98
2023-03-27T06:02:46.495Z,0.92
2023-03-27T06:05:19.631Z,0.88
2023-03-27T06:07:52.487Z,0.85
2023-03-27T06:10:22.839Z,0.82
2023-03-27T06:13:16.036Z,0.75
2023-03-27T06:16:01.401Z,0.67
2023-03-27T06:18:50.633Z,0.58
2023-03-27T06:21:22.808Z,0.52
2023-03-27T06:23:59.422Z,0.48
2023-03-27T06:26:30.465Z,0.48
2023-03-27T06:29:07.939Z,0.49
2023-03-27T06:31:40.273Z,0.49
2023-03-27T06:34:20.131Z,0.45
2023-03-27T06:36:59.998Z,0.39
2023-03-27T06:39:38.747Z,0.35
2023-03-27T06:42:09.378Z,0.32
2023-03-27T06:44:55.060Z,0.32
2023-03-27T06:48:12.138Z,0.34
2023-03-27T06:50:48.470Z,0.37
2023-03-27T06:55:53.631Z,0.46
2023-03-27T06:58:24.277Z,0.50
2023-03-27T07:00:55.381Z,0.55
2023-03-27T07:03:26.368Z,0.59
2023-03-27T07:06:25.932Z,0.67
2023-03-27T07:09:01.141Z,0.74
2023-03-27T07:11:32.179Z,0.82
2023-03-27T07:14:06.438Z,0.88
2023-03-27T07:16:36.966Z,0.92
2023-03-27T07:19:07.821Z,0.94
2023-03-27T07:21:38.683Z,0.96
2023-03-27T07:24:12.858Z,1.00
2023-03-27T07:26:43.270Z,0.99
2023-03-27T07:29:17.328Z,1.01
2023-03-27T07:34:31.567Z,1.09
2023-03-27T07:37:31.586Z,1.19
2023-03-27T07:40:36.834Z,1.33
2023-03-27T07:43:28.629Z,1.42
2023-03-27T07:45:59.787Z,1.46
2023-03-27T07:48:32.412Z,1.49
2023-03-27T07:51:13.330Z,1.53
2023-03-27T07:53:45.210Z,1.54
2023-03-27T07:56:20.675Z,1.58
2023-03-27T07:58:51.715Z,1.64
2023-03-27T08:01:26.006Z,1.67
2023-03-27T08:03:57.230Z,1.70
2023-03-27T08:06:28.050Z,1.73
2023-03-27T08:08:58.672Z,1.77
2023-03-27T08:11:31.335Z,1.81
2023-03-27T08:14:05.979Z,1.88
2023-03-27T08:16:38.013Z,1.96
2023-03-27T08:19:10.438Z,2.01
2023-03-27T08:21:45.976Z,2.01
2023-03-27T08:24:16.409Z,2.04
2023-03-27T08:27:12.291Z,2.08
2023-03-27T08:29:45.277Z,2.13
2023-03-27T08:32:16.911Z,2.18
2023-03-27T08:34:47.355Z,2.25
2023-03-27T08:37:22.554Z,2.31
2023-03-27T08:40:26.216Z,2.42
2023-03-27T08:43:14.748Z,2.46
2023-03-27T08:45:52.212Z,2.54
2023-03-27T08:48:30.644Z,2.58
2023-03-27T08:51:03.704Z,2.56
2023-03-27T08:53:41.022Z,2.51
2023-03-27T08:56:16.288Z,2.46
2023-03-27T08:58:47.864Z,2.46
2023-03-27T09:01:31.248Z,2.43
2023-03-27T09:04:13.478Z,2.43
2023-03-27T09:06:53.707Z,2.46
2023-03-27T09:09:37.176Z,2.50
2023-03-27T09:12:25.334Z,2.48
2023-03-27T09:15:01.276Z,2.44
2023-03-27T09:17:37.575Z,2.42
2023-03-27T09:20:20.455Z,2.46
2023-03-27T09:22:56.173Z,2.45
2023-03-27T09:25:39.775Z,2.42
2023-03-27T09:28:38.219Z,2.44
2023-03-27T09:31:24.670Z,2.48
2023-03-27T09:34:02.223Z,2.46
2023-03-27T09:36:35.769Z,2.45
2023-03-27T09:39:08.862Z,2.46
2023-03-27T09:41:45.777Z,2.43
2023-03-27T09:44:25.393Z,2.38
2023-03-27T09:47:02.504Z,2.37
2023-03-27T09:49:35.806Z,2.38
2023-03-27T09:52:09.525Z,2.41
2023-03-27T09:55:27.518Z,2.45
2023-03-27T09:58:14.300Z,2.50
2023-03-27T10:00:46.579Z,2.53
2023-03-27T10:03:20.503Z,2.57
2023-03-27T10:06:08.454Z,2.67
2023-03-27T10:08:50.993Z,2.83
2023-03-27T10:11:31.721Z,2.96
2023-03-27T10:14:18.795Z,2.99
2023-03-27T10:16:49.849Z,2.94
2023-03-27T10:19:28.481Z,2.86
2023-03-27T10:22:04.754Z,2.80
2023-03-27T10:24:44.355Z,2.74
2023-03-27T10:27:47.772Z,2.71
2023-03-27T10:30:40.638Z,2.71
2023-03-27T10:33:36.431Z,2.68
2023-03-27T10:36:35.184Z,2.69
2023-03-27T10:39:12.833Z,2.70
2023-03-27T10:42:02.982Z,2.68
2023-03-27T10:44:37.790Z,2.67
2023-03-27T10:47:18.085Z,2.69
2023-03-27T10:49:56.176Z,2.78
2023-03-27T10:52:45.731Z,2.85
2023-03-27T10:55:32.678Z,2.89
2023-03-27T10:58:08.511Z,2.98
2023-03-27T11:00:47.502Z,3.09
2023-03-27T11:03:26.541Z,3.24
2023-03-27T11:06:03.970Z,3.35
2023-03-27T11:08:49.009Z,3.44
2023-03-27T11:11:25.639Z,3.46
2023-03-27T11:14:02.462Z,3.52
2023-03-27T11:16:38.618Z,3.64
2023-03-27T11:19:36.072Z,3.69
2023-03-27T11:22:28.142Z,3.73
2023-03-27T11:25:06.953Z,3.74
2023-03-27T11:27:43.073Z,3.70
2023-03-27T11:30:36.950Z,3.72
2023-03-27T11:33:33.436Z,3.74
2023-03-27T11:36:29.711Z,3.74
2023-03-27T11:39:39.714Z,3.70
2023-03-27T11:42:17.558Z,3.76
2023-03-27T11:44:50.212Z,3.88
2023-03-27T11:48:15.156Z,3.87
2023-03-27T11:50:57.428Z,3.83
2023-03-27T11:53:46.615Z,3.83
2023-03-27T11:56:31.904Z,4.01
2023-03-27T11:59:38.449Z,4.29
2023-03-27T12:02:27.740Z,4.49
2023-03-27T12:05:05.470Z,4.50
2023-03-27T12:07:52.809Z,4.41
2023-03-27T12:10:31.830Z,4.25
2023-03-27T12:14:01.233Z,4.14
2023-03-27T12:17:05.432Z,4.25
2023-03-27T12:20:26.840Z,4.56
2023-03-27T12:23:19.325Z,4.85
2023-03-27T12:26:34.237Z,4.87
2023-03-27T12:29:26.225Z,5.24
2023-03-27T12:32:16.514Z,6.90
2023-03-27T12:34:55.772Z,6.33
2023-03-27T12:37:41.897Z,5.66
2023-03-27T12:40:29.420Z,5.35
2023-03-27T12:43:26.791Z,5.50
2023-03-27T12:46:14.944Z,8.16
2023-03-27T12:48:56.624Z,10.31
2023-03-27T12:51:44.070Z,9.72
2023-03-27T12:54:28.454Z,9.11
2023-03-27T12:57:08.306Z,7.88
2023-03-27T12:59:50.800Z,7.01
2023-03-27T13:02:58.590Z,7.07
2023-03-27T13:05:57.650Z,7.99
2023-03-27T13:08:50.180Z,9.99
2023-03-27T13:11:43.591Z,11.09
2023-03-27T13:14:30.801Z,9.59
2023-03-27T13:17:30.168Z,8.06
2023-03-27T13:20:11.988Z,7.24
2023-03-27T13:22:56.984Z,6.72
2023-03-27T13:25:42.848Z,6.34
2023-03-27T13:28:31.416Z,6.34
2023-03-27T13:31:36.185Z,7.94
2023-03-27T13:34:39.159Z,9.30
2023-03-27T13:37:58.340Z,10.75
2023-03-27T13:40:44.480Z,13.41
2023-03-27T13:43:23.251Z,15.22
2023-03-27T13:46:02.309Z,16.50
2023-03-27T13:48:59.453Z,17.54
2023-03-27T13:52:21.459Z,17.66
2023-03-27T13:55:28.918Z,17.86
2023-03-27T13:58:39.056Z,18.11
2023-03-27T14:01:23.039Z,17.92
2023-03-27T14:04:08.788Z,16.72
2023-03-27T14:07:12.615Z,14.16
2023-03-27T14:10:09.863Z,12.79
2023-03-27T14:13:00.133Z,12.72
2023-03-27T14:16:08.180Z,11.47
2023-03-27T14:19:13.375Z,11.48
2023-03-27T14:21:57.135Z,14.39
2023-03-27T14:24:37.770Z,16.53
2023-03-27T14:27:19.552Z,17.51
2023-03-27T14:30:07.675Z,17.62
2023-03-27T14:32:40.006Z,16.62
2023-03-27T14:35:27.537Z,15.64
2023-03-27T14:38:09.078Z,14.23
2023-03-27T14:40:50.354Z,13.36
2023-03-27T14:43:22.928Z,12.76
2023-03-27T14:46:00.669Z,12.12
2023-03-27T14:48:37.234Z,11.39
2023-03-27T14:51:13.454Z,10.64
2023-03-27T14:53:46.331Z,10.12
2023-03-27T14:56:37.569Z,9.26
2023-03-27T14:59:45.275Z,8.41
2023-03-27T15:02:23.131Z,7.77
2023-03-27T15:05:01.030Z,7.21
2023-03-27T15:07:37.722Z,6.89
2023-03-27T15:10:24.489Z,6.57
2023-03-27T15:13:36.753Z,6.15
2023-03-27T15:16:16.174Z,5.97
2023-03-27T15:19:04.806Z,5.86
2023-03-27T15:21:45.235Z,5.79
2023-03-27T15:24:21.489Z,5.74
2023-03-27T15:26:54.529Z,5.63
2023-03-27T15:29:32.235Z,5.60
2023-03-27T15:32:08.821Z,5.49
2023-03-27T15:34:46.199Z,5.35
2023-03-27T15:37:19.938Z,5.25
2023-03-27T15:40:09.194Z,5.25
2023-03-27T15:42:53.408Z,5.26
2023-03-27T15:45:35.113Z,5.30
2023-03-27T15:48:07.768Z,5.33
2023-03-27T15:50:39.601Z,5.38
2023-03-27T15:53:11.298Z,5.42
2023-03-27T15:55:47.757Z,5.43
2023-03-27T15:58:25.546Z,5.44
2023-03-27T16:01:00.979Z,5.47
2023-03-27T16:03:35.320Z,5.38
2023-03-27T16:06:22.950Z,5.27
2023-03-27T16:08:54.189Z,5.21
2023-03-27T16:11:40.419Z,5.14
2023-03-27T16:14:28.452Z,5.07
2023-03-27T16:17:19.684Z,4.96
2023-03-27T16:19:56.147Z,4.85
2023-03-27T16:22:28.879Z,4.78
2023-03-27T16:25:00.345Z,4.68
2023-03-27T16:27:35.555Z,4.61
2023-03-27T16:30:08.059Z,4.51
2023-03-27T16:32:38.496Z,4.40
2023-03-27T16:35:09.924Z,4.34
2023-03-27T16:37:40.380Z,4.28
2023-03-27T16:40:12.487Z,4.17
2023-03-27T16:42:42.974Z,4.09
2023-03-27T16:45:13.970Z,4.04
2023-03-27T16:47:46.348Z,3.98
2023-03-27T16:50:22.595Z,3.88
2023-03-27T16:52:53.349Z,3.81
2023-03-27T16:55:25.184Z,3.72
2023-03-27T16:57:56.282Z,3.64
2023-03-27T17:00:27.281Z,3.59
2023-03-27T17:02:58.523Z,3.52
2023-03-27T17:05:33.989Z,3.47
2023-03-27T17:08:07.129Z,3.37
2023-03-27T17:10:38.105Z,3.30
2023-03-27T17:13:08.387Z,3.25
2023-03-27T17:15:40.269Z,3.22
2023-03-27T17:18:10.810Z,3.16
2023-03-27T17:20:41.484Z,3.07
2023-03-27T17:23:15.182Z,3.03
2023-03-27T17:25:46.909Z,3.01
2023-03-27T17:28:18.039Z,2.95
2023-03-27T17:31:01.139Z,2.88
2023-03-27T17:33:34.413Z,2.80
2023-03-27T17:36:10.262Z,2.74
2023-03-27T17:38:41.548Z,2.65
2023-03-27T17:41:13.209Z,2.57
2023-03-27T17:43:43.783Z,2.51
2023-03-27T17:46:15.384Z,2.43
2023-03-27T17:48:49.322Z,2.37
2023-03-27T17:51:19.666Z,2.31
2023-03-27T17:53:50.184Z,2.27
2023-03-27T17:56:20.590Z,2.22
2023-03-27T17:58:51.221Z,2.18
2023-03-27T18:01:23.176Z,2.13
2023-03-27T18:03:57.788Z,2.08
2023-03-27T18:06:28.234Z,2.08
2023-03-27T18:08:58.599Z,2.05
2023-03-27T18:11:30.069Z,2.04
2023-03-27T18:14:00.539Z,2.03
2023-03-27T18:16:31.921Z,2.00
2023-03-27T18:19:03.966Z,1.98
2023-03-27T18:21:34.651Z,1.96
2023-03-27T18:24:06.101Z,1.94
2023-03-27T18:26:38.973Z,1.87
2023-03-27T18:29:10.637Z,1.81
2023-03-27T18:31:43.337Z,1.74
2023-03-27T18:34:14.618Z,1.72
2023-03-27T18:36:51.795Z,1.73
2023-03-27T18:39:23.537Z,1.73
2023-03-27T18:41:55.024Z,1.73
2023-03-27T18:44:25.514Z,1.76
2023-03-27T18:46:56.379Z,1.78
2023-03-27T18:49:26.857Z,1.79
2023-03-27T18:51:58.497Z,1.79
2023-03-27T18:54:29.982Z,1.77
2023-03-27T18:57:03.543Z,1.74
2023-03-27T18:59:36.383Z,1.70
2023-03-27T19:02:07.252Z,1.68
2023-03-27T19:04:38.245Z,1.63
2023-03-27T19:07:09.309Z,1.59
2023-03-27T19:09:41.613Z,1.53
2023-03-27T19:12:12.825Z,1.47
2023-03-27T19:15:17.362Z,1.43
2023-03-27T19:18:12.174Z,1.35
2023-03-27T19:21:06.039Z,1.29
2023-03-27T19:23:52.577Z,1.26
2023-03-27T19:26:25.152Z,1.23
2023-03-27T19:28:56.514Z,1.17
2023-03-27T19:31:28.865Z,1.10
2023-03-27T19:34:02.371Z,1.04
2023-03-27T19:36:33.549Z,0.99
2023-03-27T19:39:04.581Z,0.94
2023-03-27T19:41:37.713Z,0.89
2023-03-27T19:44:08.304Z,0.86
2023-03-27T19:46:40.676Z,0.86
2023-03-27T19:49:11.178Z,0.83
2023-03-27T19:51:52.776Z,0.81
2023-03-27T19:54:23.163Z,0.79
2023-03-27T19:56:53.807Z,0.79
2023-03-27T19:59:30.257Z,0.79
2023-03-27T20:02:01.513Z,0.80
2023-03-27T20:04:31.938Z,0.83
2023-03-27T20:07:03.493Z,0.86
2023-03-27T20:09:34.039Z,0.89
2023-03-27T20:12:05.522Z,0.92
2023-03-27T20:14:36.030Z,0.95
2023-03-27T20:17:12.186Z,0.98
2023-03-27T20:20:03.799Z,1.02
2023-03-27T20:22:40.733Z,1.02
2023-03-27T20:25:17.526Z,1.02
2023-03-27T20:27:48.662Z,0.99
2023-03-27T20:30:19.632Z,0.98
2023-03-27T20:32:52.884Z,0.97
2023-03-27T20:35:24.971Z,0.97
2023-03-27T20:37:57.966Z,0.96
2023-03-27T20:40:52.734Z,0.95
2023-03-27T20:43:29.316Z,0.92
2023-03-27T20:46:00.114Z,0.88
2023-03-27T20:48:40.222Z,0.84
2023-03-27T20:51:15.560Z,0.78
2023-03-27T20:53:54.074Z,0.74
2023-03-27T20:56:24.720Z,0.70
2023-03-27T20:58:55.162Z,0.67
2023-03-27T21:01:27.787Z,0.62
2023-03-27T21:04:02.311Z,0.58
2023-03-27T21:06:32.778Z,0.57
2023-03-27T21:09:03.556Z,0.55
2023-03-27T21:11:37.174Z,0.53
2023-03-27T21:14:08.261Z,0.51
2023-03-27T21:16:42.545Z,0.50
2023-03-27T21:19:13.003Z,0.48
2023-03-27T21:21:44.587Z,0.45
2023-03-27T21:24:15.574Z,0.42
2023-03-27T21:26:45.930Z,0.39
2023-03-27T21:29:16.318Z,0.37
2023-03-27T21:31:46.770Z,0.34
2023-03-27T21:34:17.099Z,0.30
2023-03-27T21:36:47.555Z,0.27
2023-03-27T21:39:17.898Z,0.24
2023-03-27T21:41:48.268Z,0.21
2023-03-27T21:44:18.623Z,0.18
2023-03-27T21:46:49.000Z,0.18
2023-03-27T21:49:19.357Z,0.16
2023-03-27T21:51:49.703Z,0.14
2023-03-27T21:54:20.062Z,0.13
2023-03-27T21:56:50.495Z,0.13
2023-03-27T21:59:20.947Z,0.10
2023-03-27T22:01:51.413Z,0.08
2023-03-27T22:04:22.010Z,0.09
2023-03-27T22:06:52.903Z,0.08
2023-03-27T22:09:23.281Z,0.09
2023-03-27T22:11:53.605Z,0.08
2023-03-27T22:14:24.160Z,0.09
2023-03-27T22:16:54.632Z,0.06
2023-03-27T22:19:25.020Z,0.05
2023-03-27T22:21:56.447Z,0.03
2023-03-27T22:24:26.751Z,0.01
2023-03-27T22:26:57.266Z,0.00
2023-03-27T22:29:27.605Z,-0.02
2023-03-27T22:31:57.911Z,-0.03
2023-03-27T22:34:28.874Z,-0.03
2023-03-27T22:36:59.247Z,-0.03
2023-03-27T22:39:29.891Z,-0.03
2023-03-27T22:42:00.228Z,-0.04
2023-03-27T22:44:31.807Z,-0.06
2023-03-27T22:47:02.940Z,-0.07
2023-03-27T22:49:33.243Z,-0.09
2023-03-27T22:52:03.990Z,-0.11
2023-03-27T22:54:34.321Z,-0.10
2023-03-27T22:57:04.856Z,-0.10
2023-03-27T22:59:35.380Z,-0.10
2023-03-27T23:02:05.810Z,-0.09
2023-03-27T23:04:36.501Z,-0.10
2023-03-27T23:07:06.903Z,-0.10
2023-03-27T23:09:37.488Z,-0.10
2023-03-27T23:12:08.294Z,-0.12
2023-03-27T23:14:38.666Z,-0.11
2023-03-27T23:17:09.048Z,-0.13
2023-03-27T23:19:39.412Z,-0.14
2023-03-27T23:22:09.715Z,-0.14
2023-03-27T23:24:40.046Z,-0.14
2023-03-27T23:27:10.299Z,-0.13
2023-03-27T23:29:40.672Z,-0.15
2023-03-27T23:32:11.008Z,-0.15
2023-03-27T23:34:41.320Z,-0.12
2023-03-27T23:37:11.634Z,-0.11
2023-03-27T23:39:42.060Z,-0.10
2023-03-27T23:42:12.364Z,-0.11
2023-03-27T23:44:42.693Z,-0.12
2023-03-27T23:47:12.955Z,-0.13
2023-03-27T23:49:43.404Z,-0.13
2023-03-27T23:52:13.841Z,-0.13
2023-03-27T23:54:44.190Z,-0.14
2023-03-27T23:57:14.685Z,-0.13
2023-03-27T23:59:45.058Z,-0.15
